Forum Crazy Orc - Centre de statistiques

Statistiques générales

Total des membres:
913
Total des messages:
95 740
Total des sujets:
3 893
Total des catégories:
4
Membres en ligne:
68
Connexions simultanées:
808 - 21 janvier 2020 à 20:55:59
En ligne aujourd'hui:
77
Total des pages vues:
29 557 499
Moyenne des inscriptions par jour:
0,25
Moyenne des messages par jour:
25,94
Moyenne des sujets par jour:
1,13
Total des sections:
40
Dernier membre:
Haendarien
Moyenne d'utilisateurs connectés par jour:
46,80
Ratio hommes/femmes:
7.2:1
Pages vues en moyenne par jour:
5 494,98

Top lanceurs de sujets

nunch
600
ManuDevil
287
GroumpH
246
Morithil
209
Scratchy
132
MAO
110
LeDupontesque
105
jules
99
snake
92
CCCP
84

Temps de connexion cumulé

Mandy
133j 19h 59m
GroumpH
112j 9h 9m
CCCP
84j 20h 37m
Nukeflow
73j 8h 19m
ManuDevil
67j 4h 10m
Felipe
61j 12h 19m
dao
56j 17h 52m
nunch
49j 24m
Rh
42j 23h 32m
Patate
40j 18h 12m

Historique du forum (basé sur l'heure interne du forum)

Résumé annuel Nouveaux sujets Nouveaux messages Nouveaux membres Connexions simultanées Pages vues
* 2021 121 708 53 338 3 680 288
Novembre 2021 13 88 4 153 227 144
Octobre 2021 20 208 15 159 298 103
Septembre 2021 24 171 10 280 285 455
Août 2021 11 33 7 73 231 609
2021-08-01 0 0 0 28 9 012
2021-08-02 0 0 0 33 10 340
2021-08-03 0 0 0 48 9 087
2021-08-04 0 0 0 39 6 385
2021-08-05 0 0 1 40 5 603
2021-08-06 0 0 0 40 9 211
2021-08-07 0 0 0 40 10 577
2021-08-08 0 0 0 36 10 060
2021-08-09 0 0 0 40 11 728
2021-08-10 0 0 0 55 10 109
2021-08-11 0 0 0 37 6 508
2021-08-12 0 0 0 39 8 136
2021-08-13 1 3 1 41 6 454
2021-08-14 2 5 1 37 6 972
2021-08-15 0 0 0 43 9 840
2021-08-16 0 0 0 38 13 142
2021-08-17 0 0 0 45 7 592
2021-08-18 0 0 1 38 6 557
2021-08-19 0 0 0 37 6 038
2021-08-20 2 2 0 37 6 461
2021-08-21 0 0 0 48 6 027
2021-08-22 0 0 0 40 2 939
2021-08-23 0 1 0 35 3 225
2021-08-24 0 1 0 41 6 669
2021-08-25 3 7 1 50 9 922
2021-08-26 1 1 0 73 2 986
2021-08-27 0 0 0 35 2 451
2021-08-28 0 1 1 33 5 309
2021-08-29 0 0 0 32 8 982
2021-08-30 2 6 1 32 7 294
2021-08-31 0 6 0 42 5 993
Juillet 2021 6 8 2 81 305 173
Juin 2021 17 31 2 135 311 168
Mai 2021 3 31 4 268 597 777
Avril 2021 10 51 6 287 308 355
2021-04-01 1 5 1 73 10 500
2021-04-02 0 2 0 71 8 047
2021-04-03 0 0 0 59 7 541
2021-04-04 1 3 1 56 9 206
2021-04-05 0 0 0 59 8 809
2021-04-06 0 1 0 59 6 737
2021-04-07 0 4 0 63 6 731
2021-04-08 0 0 0 64 9 161
2021-04-09 0 0 0 65 8 780
2021-04-10 0 0 0 64 8 686
2021-04-11 0 1 0 59 9 738
2021-04-12 0 2 0 63 9 761
2021-04-13 1 3 1 71 11 667
2021-04-14 0 4 0 287 14 963
2021-04-15 0 0 0 74 11 393
2021-04-16 0 2 0 68 9 533
2021-04-17 0 0 0 68 7 869
2021-04-18 0 0 0 73 6 458
2021-04-19 0 1 0 67 6 158
2021-04-20 3 3 1 76 9 885
2021-04-21 1 8 1 91 8 256
2021-04-22 0 5 0 132 10 159
2021-04-23 0 0 0 145 14 980
2021-04-24 1 1 0 132 12 209
2021-04-25 0 2 0 142 12 832
2021-04-26 1 2 0 116 9 593
2021-04-27 0 1 0 118 9 289
2021-04-28 0 0 1 107 12 148
2021-04-29 0 0 0 107 9 489
2021-04-30 1 1 0 104 27 777
Mars 2021 7 24 1 308 444 900
Février 2021 5 29 2 338 223 056
Janvier 2021 5 34 0 322 447 548
* 2020 206 1 716 105 808 4 713 463
Décembre 2020 6 38 2 320 310 487
2020-12-01 1 1 0 121 10 809
2020-12-02 0 3 0 116 10 099
2020-12-03 0 2 0 114 11 876
2020-12-04 0 0 0 94 10 791
2020-12-05 0 3 0 82 9 574
2020-12-06 1 10 0 78 10 653
2020-12-07 0 4 0 68 10 998
2020-12-08 0 0 0 66 32 260
2020-12-09 0 1 0 67 7 435
2020-12-10 0 1 1 60 7 610
2020-12-11 0 0 0 60 7 643
2020-12-12 0 1 0 63 7 412
2020-12-13 0 1 0 50 7 185
2020-12-14 1 2 0 46 5 821
2020-12-15 0 1 0 44 8 427
2020-12-16 0 0 0 320 13 083
2020-12-17 0 0 0 74 9 703
2020-12-18 0 0 0 71 8 569
2020-12-19 0 0 0 63 7 390
2020-12-20 0 3 0 65 6 819
2020-12-21 1 1 0 59 6 108
2020-12-22 0 0 0 70 10 438
2020-12-23 0 1 0 73 9 331
2020-12-24 0 0 0 72 10 558
2020-12-25 0 0 0 77 9 826
2020-12-26 0 0 0 72 10 399
2020-12-27 1 1 1 88 10 008
2020-12-28 0 1 0 88 8 712
2020-12-29 1 1 0 105 10 795
2020-12-30 0 0 0 79 10 368
2020-12-31 0 0 0 69 9 787
Novembre 2020 12 97 3 352 464 426
Octobre 2020 21 169 7 346 497 422
Septembre 2020 30 356 15 133 325 183
Août 2020 16 147 7 163 471 897
2020-08-01 0 0 1 125 9 376
2020-08-02 0 0 1 127 10 771
2020-08-03 2 4 0 135 9 364
2020-08-04 0 0 0 163 13 035
2020-08-05 0 5 1 160 20 546
2020-08-06 0 2 0 131 12 711
2020-08-07 0 0 0 119 12 203
2020-08-08 0 0 0 103 12 458
2020-08-09 0 2 0 87 11 220
2020-08-10 0 1 0 81 10 362
2020-08-11 0 1 0 83 14 026
2020-08-12 0 3 0 87 134 172
2020-08-13 0 5 0 103 10 481
2020-08-14 0 3 0 97 13 299
2020-08-15 2 3 0 96 8 890
2020-08-16 3 6 1 82 8 258
2020-08-17 0 11 0 85 9 541
2020-08-18 0 6 0 91 10 678
2020-08-19 0 5 0 84 11 112
2020-08-20 1 15 1 78 11 469
2020-08-21 0 7 0 84 11 326
2020-08-22 0 5 0 83 11 201
2020-08-23 1 3 0 71 10 011
2020-08-24 3 8 0 82 10 392
2020-08-25 0 2 0 95 9 967
2020-08-26 0 5 0 92 10 480
2020-08-27 2 9 0 92 12 374
2020-08-28 1 12 1 95 9 959
2020-08-29 0 9 1 90 9 439
2020-08-30 0 8 0 104 10 776
2020-08-31 1 7 0 137 12 000
Juillet 2020 16 77 2 100 345 760
Juin 2020 17 60 5 127 452 817
Mai 2020 7 22 3 295 321 652
Avril 2020 10 47 1 189 300 030
2020-04-01 1 10 0 107 11 966
2020-04-02 0 2 0 114 10 310
2020-04-03 0 1 0 103 9 502
2020-04-04 0 2 0 128 9 178
2020-04-05 0 0 0 114 10 662
2020-04-06 4 7 0 109 8 396
2020-04-07 0 3 0 117 8 692
2020-04-08 0 0 0 104 13 455
2020-04-09 0 1 0 114 10 600
2020-04-10 0 0 0 112 7 011
2020-04-11 0 0 0 101 8 460
2020-04-12 1 2 0 120 10 038
2020-04-13 0 1 0 108 11 715
2020-04-14 0 1 0 107 13 383
2020-04-15 0 1 0 93 9 161
2020-04-16 1 2 0 99 8 579
2020-04-17 0 0 0 106 6 755
2020-04-18 0 2 0 96 7 568
2020-04-19 0 0 0 113 5 193
2020-04-20 0 0 0 189 9 427
2020-04-21 0 0 0 183 10 619
2020-04-22 0 1 0 157 9 559
2020-04-23 1 2 0 99 9 058
2020-04-24 0 5 0 99 9 065
2020-04-25 0 0 0 97 8 270
2020-04-26 0 0 0 94 26 246
2020-04-27 0 0 1 93 9 286
2020-04-28 1 2 0 100 8 564
2020-04-29 1 2 0 105 9 760
2020-04-30 0 0 0 120 9 552
Mars 2020 24 253 3 199 467 854
Février 2020 18 171 9 323 281 798
Janvier 2020 29 279 48 808 474 137
* 2019 246 3 411 313 446 3 308 531
Décembre 2019 18 159 26 446 351 248
Novembre 2019 16 245 33 325 524 135
Octobre 2019 24 272 59 121 189 762
Septembre 2019 25 386 54 141 376 708
Août 2019 22 257 31 122 225 760
Juillet 2019 24 281 62 149 190 301
Juin 2019 11 171 3 112 246 519
Mai 2019 23 311 10 167 218 891
Avril 2019 21 294 9 174 311 459
2019-04-01 1 11 0 174 7 945
2019-04-02 3 24 0 122 7 494
2019-04-03 1 14 0 142 9 858
2019-04-04 0 8 0 139 10 089
2019-04-05 0 2 0 133 12 161
2019-04-06 1 12 1 133 7 608
2019-04-07 0 6 0 120 7 430
2019-04-08 1 14 1 135 8 563
2019-04-09 0 13 0 137 16 179
2019-04-10 2 17 0 144 19 838
2019-04-11 1 14 1 138 21 613
2019-04-12 0 14 0 119 19 438
2019-04-13 1 11 3 51 7 170
2019-04-14 0 4 0 64 8 623
2019-04-15 0 0 0 61 10 243
2019-04-16 0 1 0 55 8 411
2019-04-17 0 2 0 72 6 278
2019-04-18 1 9 0 62 9 286
2019-04-19 2 8 0 70 7 179
2019-04-20 0 5 0 129 4 258
2019-04-21 0 11 1 152 3 979
2019-04-22 2 7 0 170 5 151
2019-04-23 0 9 0 59 8 482
2019-04-24 0 17 0 78 9 241
2019-04-25 1 13 2 57 13 826
2019-04-26 0 6 0 58 15 753
2019-04-27 0 2 0 47 12 881
2019-04-28 3 17 0 58 10 108
2019-04-29 1 20 0 57 11 176
2019-04-30 0 3 0 58 11 198
Mars 2019 22 372 16 142 344 146
Février 2019 18 288 4 110 142 132
Janvier 2019 22 375 6 113 187 470
* 2018 338 6 176 81 641 2 624 946
Décembre 2018 43 306 8 253 421 582
Novembre 2018 26 467 9 641 383 363
Octobre 2018 34 527 6 321 248 725
Septembre 2018 34 641 10 127 216 306
Août 2018 32 583 16 101 188 648
2018-08-01 0 26 0 98 6 784
2018-08-02 0 29 0 101 6 795
2018-08-03 0 11 0 93 6 370
2018-08-04 5 19 1 90 6 653
2018-08-05 4 23 0 93 6 519
2018-08-06 0 24 0 95 6 142
2018-08-07 2 23 1 94 5 013
2018-08-08 0 18 0 93 6 325
2018-08-09 1 9 0 98 6 608
2018-08-10 1 13 1 101 6 723
2018-08-11 0 17 1 94 6 721
2018-08-12 1 9 2 92 6 116
2018-08-13 2 19 0 93 6 356
2018-08-14 0 5 0 90 6 043
2018-08-15 1 16 0 93 6 200
2018-08-16 1 34 0 89 6 859
2018-08-17 0 25 0 86 5 971
2018-08-18 0 27 1 90 6 101
2018-08-19 4 24 0 94 6 672
2018-08-20 0 10 1 83 6 150
2018-08-21 1 9 2 93 5 405
2018-08-22 1 24 0 90 4 343
2018-08-23 3 23 3 89 5 993
2018-08-24 1 54 3 92 7 389
2018-08-25 0 13 0 84 5 312
2018-08-26 0 3 0 83 5 702
2018-08-27 0 9 0 82 5 196
2018-08-28 2 10 0 84 5 401
2018-08-29 1 8 0 82 4 297
2018-08-30 1 19 0 27 4 663
2018-08-31 0 30 0 22 7 826
Juillet 2018 21 386 3 104 182 475
Juin 2018 31 442 3 110 213 303
Mai 2018 21 422 4 107 174 393
Avril 2018 25 564 5 104 159 849
2018-04-01 5 38 1 78 19 803
2018-04-02 1 37 0 81 4 900
2018-04-03 0 28 0 80 4 480
2018-04-04 1 26 0 88 4 206
2018-04-05 3 35 0 84 4 988
2018-04-06 0 18 0 82 4 984
2018-04-07 0 8 0 86 4 144
2018-04-08 2 17 0 90 4 595
2018-04-09 0 32 0 83 4 451
2018-04-10 0 21 0 84 4 551
2018-04-11 0 12 0 93 4 320
2018-04-12 0 21 0 104 5 608
2018-04-13 1 10 0 85 4 997
2018-04-14 2 39 1 91 4 749
2018-04-15 2 21 0 92 5 393
2018-04-16 1 13 0 92 5 327
2018-04-17 0 9 0 88 4 518
2018-04-18 0 12 1 89 4 185
2018-04-19 0 7 0 16 1 456
2018-04-20 0 6 0 82 2 948
2018-04-21 0 6 0 81 4 974
2018-04-22 0 3 0 83 4 887
2018-04-23 2 9 0 85 5 259
2018-04-24 3 20 0 82 4 998
2018-04-25 0 16 1 81 5 180
2018-04-26 0 11 0 78 4 558
2018-04-27 1 23 1 86 10 368
2018-04-28 0 26 0 88 5 449
2018-04-29 1 20 0 86 4 042
2018-04-30 0 20 0 99 5 531
Mars 2018 20 634 4 96 152 933
Février 2018 25 631 7 93 121 912
Janvier 2018 26 573 6 94 161 457
* 2017 346 6 100 56 180 1 675 168
Décembre 2017 37 499 6 91 136 063
Novembre 2017 37 675 6 93 169 670
Octobre 2017 15 426 2 93 151 449
Septembre 2017 28 548 5 94 135 543
Août 2017 29 384 6 99 148 097
2017-08-01 0 9 0 68 3 543
2017-08-02 0 12 1 66 2 932
2017-08-03 0 7 0 64 3 100
2017-08-04 1 8 0 83 3 375
2017-08-05 1 8 0 81 4 004
2017-08-06 2 6 1 80 3 731
2017-08-07 6 14 1 85 3 850
2017-08-08 2 3 0 76 4 998
2017-08-09 0 13 1 72 4 403
2017-08-10 3 6 0 75 3 696
2017-08-11 0 6 0 74 2 479
2017-08-12 0 7 0 81 4 043
2017-08-13 0 9 0 73 4 128
2017-08-14 0 14 0 73 3 594
2017-08-15 2 7 0 71 3 835
2017-08-16 1 11 0 70 3 779
2017-08-17 0 13 0 82 3 941
2017-08-18 0 7 0 82 3 689
2017-08-19 0 8 0 19 1 560
2017-08-20 0 11 0 85 2 353
2017-08-21 0 15 0 99 4 536
2017-08-22 2 37 0 91 4 987
2017-08-23 0 13 0 81 4 153
2017-08-24 5 24 0 87 5 297
2017-08-25 1 31 0 79 4 356
2017-08-26 0 12 0 85 4 846
2017-08-27 1 23 0 83 6 285
2017-08-28 0 21 0 98 6 070
2017-08-29 0 5 0 85 5 964
2017-08-30 1 14 1 79 25 924
2017-08-31 1 10 1 82 4 646
Juillet 2017 25 490 5 87 176 472
Juin 2017 33 603 4 89 156 248
Mai 2017 26 470 2 99 181 189
Avril 2017 31 490 5 180 139 896
2017-04-01 0 14 0 48 4 179
2017-04-02 1 21 0 41 11 405
2017-04-03 2 14 0 44 1 551
2017-04-04 0 6 0 22 930
2017-04-05 2 13 0 19 1 221
2017-04-06 0 20 0 20 4 204
2017-04-07 0 9 0 19 2 345
2017-04-08 1 18 0 22 2 529
2017-04-09 1 5 1 17 1 209
2017-04-10 3 36 1 44 2 839
2017-04-11 2 22 0 74 4 607
2017-04-12 2 19 0 62 5 808
2017-04-13 0 31 0 64 3 713
2017-04-14 2 35 0 59 3 257
2017-04-15 0 8 0 68 3 136
2017-04-16 0 12 0 63 3 438
2017-04-17 2 22 0 58 3 762
2017-04-18 2 30 0 81 5 391
2017-04-19 1 23 1 122 6 928
2017-04-20 1 8 0 68 5 309
2017-04-21 0 14 0 51 3 988
2017-04-22 0 2 0 47 4 082
2017-04-23 2 18 0 51 6 943
2017-04-24 1 15 1 51 4 833
2017-04-25 2 26 1 180 6 646
2017-04-26 3 19 0 83 8 145
2017-04-27 0 2 0 68 8 631
2017-04-28 0 2 0 61 4 684
2017-04-29 1 18 0 58 6 307
2017-04-30 0 8 0 54 7 876
Mars 2017 27 432 3 119 90 981
Février 2017 31 587 7 87 74 924
Janvier 2017 27 496 5 80 114 636
* 2016 389 7 721 79 245 2 075 605
Décembre 2016 34 533 2 170 118 206
Novembre 2016 34 586 6 245 122 991
Octobre 2016 43 726 7 191 160 217
Septembre 2016 26 657 9 85 157 449
Août 2016 31 721 9 114 169 873
2016-08-01 0 34 0 56 15 771
2016-08-02 1 24 0 49 4 965
2016-08-03 0 15 0 54 4 374
2016-08-04 0 39 0 46 4 547
2016-08-05 1 46 1 42 4 740
2016-08-06 0 18 0 49 4 109
2016-08-07 9 43 2 54 3 599
2016-08-08 1 25 0 48 3 592
2016-08-09 0 15 0 49 3 725
2016-08-10 0 19 0 45 4 264
2016-08-11 1 9 0 44 3 140
2016-08-12 1 24 0 45 4 209
2016-08-13 0 13 2 48 4 850
2016-08-14 2 31 2 46 4 216
2016-08-15 0 27 0 25 3 114
2016-08-16 1 23 0 30 2 754
2016-08-17 1 30 0 30 3 105
2016-08-18 0 16 0 60 3 872
2016-08-19 0 27 0 58 4 655
2016-08-20 1 23 0 72 4 528
2016-08-21 0 6 0 64 4 231
2016-08-22 0 19 0 114 6 004
2016-08-23 1 25 0 103 5 871
2016-08-24 1 24 0 59 3 064
2016-08-25 0 7 0 90 16 785
2016-08-26 1 16 0 69 17 998
2016-08-27 0 12 0 72 4 035
2016-08-28 7 42 1 73 3 576
2016-08-29 0 27 0 77 5 294
2016-08-30 1 27 1 71 5 843
2016-08-31 1 15 0 69 5 043
Juillet 2016 19 513 3 58 166 690
Juin 2016 30 565 5 53 211 715
Mai 2016 40 1 116 8 94 166 514
Avril 2016 27 529 7 65 155 208
Mars 2016 35 513 11 88 224 056
Février 2016 35 640 4 96 192 454
Janvier 2016 35 622 8 95 230 232
* 2015 373 6 684 79 100 1 549 803
Décembre 2015 28 499 7 68 140 303
Novembre 2015 40 724 5 35 146 607
Octobre 2015 32 760 10 84 227 528
Septembre 2015 40 948 13 100 169 012
Août 2015 36 566 12 61 119 954
2015-08-01 2 13 0 18 2 717
2015-08-02 0 7 0 13 2 055
2015-08-03 7 20 2 15 2 199
2015-08-04 1 9 0 40 3 590
2015-08-05 0 13 0 16 2 911
2015-08-06 0 5 0 14 2 574
2015-08-07 0 22 0 17 3 967
2015-08-08 0 14 0 17 3 023
2015-08-09 5 32 1 18 2 992
2015-08-10 2 30 1 17 4 088
2015-08-11 1 16 1 15 2 652
2015-08-12 3 23 0 16 2 544
2015-08-13 0 7 0 14 2 436
2015-08-14 0 8 0 55 4 945
2015-08-15 1 11 0 52 4 116
2015-08-16 0 12 0 13 2 678
2015-08-17 0 2 0 54 3 352
2015-08-18 0 6 0 49 3 473
2015-08-19 0 2 0 29 2 985
2015-08-20 1 13 1 19 3 315
2015-08-21 0 13 0 54 5 973
2015-08-22 0 4 0 13 4 672
2015-08-23 3 21 1 21 3 708
2015-08-24 2 33 2 19 4 048
2015-08-25 1 46 1 25 5 182
2015-08-26 0 17 0 18 5 281
2015-08-27 0 23 0 28 5 761
2015-08-28 1 44 1 17 5 899
2015-08-29 0 37 0 43 5 544
2015-08-30 1 26 1 43 3 953
2015-08-31 5 37 0 61 7 321
Juillet 2015 29 462 7 31 89 666
Juin 2015 24 453 5 30 112 317
Mai 2015 30 390 2 24 73 874
Avril 2015 29 408 4 25 95 371
Mars 2015 38 550 7 37 130 116
Février 2015 15 434 2 24 123 854
Janvier 2015 32 490 5 44 121 201
* 2014 428 7 364 58 58 2 478 164
Décembre 2014 24 360 4 33 191 610
Novembre 2014 37 572 7 46 525 858
Octobre 2014 45 928 8 58 364 915
Septembre 2014 24 549 8 32 162 413
Août 2014 17 251 4 27 191 624
2014-08-01 0 11 0 17 4 869
2014-08-02 2 8 0 20 4 008
2014-08-03 5 21 0 22 3 930
2014-08-04 0 13 0 27 7 210
2014-08-05 2 12 1 24 7 177
2014-08-06 0 16 0 27 6 701
2014-08-07 0 7 0 25 3 965
2014-08-08 0 13 0 27 6 141
2014-08-09 0 2 0 21 4 733
2014-08-10 1 21 1 23 5 317
2014-08-11 0 0 0 22 5 671
2014-08-12 0 7 0 24 6 599
2014-08-13 0 1 0 15 4 833
2014-08-14 0 1 1 17 5 819
2014-08-15 0 0 0 18 6 630
2014-08-16 1 9 0 21 6 366
2014-08-17 0 11 0 19 6 206
2014-08-18 0 3 0 19 7 614
2014-08-19 1 2 0 25 6 728
2014-08-20 1 6 0 27 8 084
2014-08-21 0 8 0 27 9 580
2014-08-22 1 6 0 25 9 362
2014-08-23 0 7 0 22 6 382
2014-08-24 2 6 0 22 5 960
2014-08-25 0 5 0 25 5 413
2014-08-26 0 9 0 24 6 547
2014-08-27 0 5 0 23 5 741
2014-08-28 0 6 0 21 6 634
2014-08-29 1 9 1 25 5 677
2014-08-30 0 3 0 22 6 121
2014-08-31 0 23 0 23 5 606
Juillet 2014 25 369 3 30 236 312
Juin 2014 29 602 3 32 220 918
Mai 2014 34 842 6 29 157 174
Avril 2014 45 662 1 25 104 486
Mars 2014 32 595 4 26 120 439
Février 2014 24 660 5 28 102 996
Janvier 2014 92 974 5 33 99 419
* 2013 408 8 887 76 89 1 597 727
Décembre 2013 36 785 2 79 132 305
Novembre 2013 36 751 8 29 141 119
Octobre 2013 37 683 10 26 116 570
Septembre 2013 33 723 15 29 160 779
Août 2013 20 356 4 30 113 960
Juillet 2013 21 331 2 24 120 164
Juin 2013 40 731 5 34 119 512
Mai 2013 34 881 3 47 157 484
Avril 2013 38 799 8 33 124 279
Mars 2013 40 1 111 9 62 147 762
Février 2013 32 838 5 79 125 299
Janvier 2013 41 898 5 89 138 494
* 2012 446 10 690 67 157 1 274 957
Décembre 2012 57 1 411 4 45 150 137
Novembre 2012 46 1 137 8 25 112 399
Octobre 2012 45 1 068 7 25 80 970
Septembre 2012 37 876 11 38 107 023
Août 2012 30 595 5 41 95 032
Juillet 2012 24 563 2 157 78 638
Juin 2012 39 984 10 33 88 620
Mai 2012 22 703 5 26 77 701
Avril 2012 33 714 4 33 95 151
Mars 2012 35 977 5 48 160 160
Février 2012 34 704 5 33 117 877
Janvier 2012 44 958 1 30 111 249
2012-01-01 3 33 0 15 2 419
2012-01-02 3 54 0 22 4 785
2012-01-03 2 41 1 24 4 216
2012-01-04 0 23 0 20 4 356
2012-01-05 3 33 0 23 4 494
2012-01-06 3 53 0 30 4 247
2012-01-07 0 24 0 20 3 112
2012-01-08 3 21 0 19 3 575
2012-01-09 3 40 0 24 5 659
2012-01-10 2 39 0 24 2 961
2012-01-11 3 38 0 20 4 809
2012-01-12 0 9 0 24 3 309
2012-01-13 1 33 0 22 5 053
2012-01-14 1 20 0 18 2 639
2012-01-15 3 42 0 22 2 705
2012-01-16 2 59 0 26 4 036
2012-01-17 2 34 0 20 4 879
2012-01-18 1 23 0 19 2 689
2012-01-19 1 25 0 23 3 208
2012-01-20 1 37 0 21 4 457
2012-01-21 0 12 0 20 2 455
2012-01-22 1 33 0 22 5 353
2012-01-23 1 33 0 19 2 704
2012-01-24 1 34 0 23 5 671
2012-01-25 1 23 0 22 2 765
2012-01-26 0 17 0 15 2 256
2012-01-27 1 21 0 15 2 639
2012-01-28 0 37 0 14 2 277
2012-01-29 0 9 0 19 2 598
2012-01-30 1 19 0 18 2 202
2012-01-31 1 39 0 17 2 721
* 2011 822 21 877 118 48 1 861 895
Décembre 2011 68 1 315 7 36 141 929
Novembre 2011 94 1 539 4 36 150 015
Octobre 2011 81 1 597 13 41 169 207
Septembre 2011 96 1 991 19 24 158 540
Août 2011 68 1 372 16 48 135 201
Juillet 2011 57 1 156 10 30 112 626
Juin 2011 40 1 214 6 31 149 115
Mai 2011 64 1 997 8 39 181 997
2011-05-01 1 44 0 21 3 800
2011-05-02 2 97 0 21 4 247
2011-05-03 2 60 0 15 3 949
2011-05-04 2 57 0 22 4 174
2011-05-05 2 87 0 29 4 101
2011-05-06 1 46 0 19 3 293
2011-05-07 3 21 0 31 5 860
2011-05-08 1 13 1 29 6 061
2011-05-09 2 62 1 26 7 057
2011-05-10 3 117 1 32 13 635
2011-05-11 0 70 0 33 8 213
2011-05-12 4 99 0 39 6 910
2011-05-13 3 60 0 27 5 773
2011-05-14 3 45 1 23 4 456
2011-05-15 1 55 0 26 5 530
2011-05-16 1 73 0 34 6 924
2011-05-17 0 96 0 25 5 617
2011-05-18 4 144 0 29 7 640
2011-05-19 2 91 0 34 8 906
2011-05-20 1 45 0 28 5 778
2011-05-21 0 21 0 38 5 753
2011-05-22 1 55 0 29 6 481
2011-05-23 7 130 0 23 10 799
2011-05-24 1 41 0 28 4 569
2011-05-25 3 51 0 34 6 528
2011-05-26 0 71 2 24 4 490
2011-05-27 1 49 1 18 3 249
2011-05-28 0 36 0 14 2 868
2011-05-29 7 31 0 23 4 945
2011-05-30 3 76 0 28 5 514
2011-05-31 3 54 1 25 4 877
Avril 2011 46 1 637 9 38 176 986
Mars 2011 54 2 388 6 31 211 307
Février 2011 59 2 656 5 46 128 248
Janvier 2011 95 3 015 15 44 146 724
2011-01-01 4 28 1 33 3 209
2011-01-02 3 53 0 27 3 194
2011-01-03 4 120 0 23 4 999
2011-01-04 4 123 0 25 4 781
2011-01-05 2 129 0 36 4 810
2011-01-06 3 97 1 27 4 554
2011-01-07 0 98 0 25 4 909
2011-01-08 1 28 1 20 3 049
2011-01-09 3 61 0 20 3 543
2011-01-10 3 87 0 36 4 897
2011-01-11 1 79 1 25 4 007
2011-01-12 2 149 0 34 5 515
2011-01-13 6 143 3 40 5 584
2011-01-14 5 244 0 29 8 061
2011-01-15 1 41 0 36 4 401
2011-01-16 9 38 0 23 3 832
2011-01-17 2 153 0 44 6 302
2011-01-18 4 85 0 32 5 425
2011-01-19 4 92 0 29 4 997
2011-01-20 5 99 1 25 4 295
2011-01-21 3 75 0 30 4 089
2011-01-22 3 45 1 32 3 479
2011-01-23 1 85 1 32 4 851
2011-01-24 1 79 0 35 4 531
2011-01-25 2 98 0 30 5 112
2011-01-26 4 137 3 25 5 274
2011-01-27 1 118 0 27 5 128
2011-01-28 4 130 1 32 5 328
2011-01-29 1 78 0 25 4 103
2011-01-30 2 58 0 33 3 935
2011-01-31 7 165 1 33 6 530
* 2010 615 23 079 70 91 1 409 620
Décembre 2010 54 2 635 5 43 199 984
Novembre 2010 59 2 475 6 49 127 779
Octobre 2010 56 2 811 15 58 134 942
Septembre 2010 53 1 528 8 29 95 249
Août 2010 32 1 287 6 33 89 617
Juillet 2010 34 1 637 5 32 97 290
Juin 2010 46 2 137 3 28 109 648
Mai 2010 50 1 497 6 28 99 050
Avril 2010 45 1 888 3 26 102 219
Mars 2010 53 1 534 2 46 118 201
Février 2010 65 1 574 4 91 117 274
Janvier 2010 68 2 076 7 43 118 367
2010-01-01 1 46 0 20 3 913
2010-01-02 4 31 1 32 3 858
2010-01-03 2 36 0 28 3 215
2010-01-04 4 63 0 32 3 563
2010-01-05 6 83 1 14 3 833
2010-01-06 1 75 0 29 4 333
2010-01-07 1 69 0 28 3 556
2010-01-08 3 91 0 31 3 667
2010-01-09 2 63 0 16 6 182
2010-01-10 3 84 0 26 5 259
2010-01-11 0 69 0 34 3 960
2010-01-12 2 49 1 38 3 467
2010-01-13 3 71 0 43 3 364
2010-01-14 6 94 0 22 3 885
2010-01-15 1 39 0 35 3 006
2010-01-16 4 72 0 29 3 257
2010-01-17 3 64 0 21 3 633
2010-01-18 1 108 1 25 4 914
2010-01-19 0 43 0 32 4 202
2010-01-20 2 67 0 41 4 556
2010-01-21 1 91 1 31 3 743
2010-01-22 2 86 0 34 3 744
2010-01-23 2 36 1 19 2 584
2010-01-24 0 37 0 21 3 027
2010-01-25 2 126 1 37 4 743
2010-01-26 2 71 0 34 3 580
2010-01-27 1 58 0 20 3 145
2010-01-28 1 65 0 13 3 955
2010-01-29 3 81 0 17 3 847
2010-01-30 2 48 0 14 2 989
2010-01-31 3 60 0 14 3 387
* 2009 752 28 223 96 159 970 278
Décembre 2009 39 2 001 5 54 122 418
Novembre 2009 59 3 138 6 38 117 432
Octobre 2009 67 3 218 11 18 122 232
Septembre 2009 73 2 730 14 159 92 082
Août 2009 47 1 405 8 15 61 919
Juillet 2009 68 1 737 11 21 67 267
Juin 2009 63 2 759 4 37 72 789
Mai 2009 46 2 166 6 16 66 386
2009-05-01 1 129 0 10 2 835
2009-05-02 1 42 1 14 1 469
2009-05-03 0 68 0 13 1 801
2009-05-04 3 101 1 16 2 844
2009-05-05 2 74 1 13 2 433
2009-05-06 4 156 0 15 3 705
2009-05-07 1 47 0 12 1 946
2009-05-08 1 54 1 9 1 538
2009-05-09 2 46 0 10 1 306
2009-05-10 2 58 0 12 1 788
2009-05-11 0 77 0 13 2 263
2009-05-12 1 49 1 11 2 134
2009-05-13 0 31 0 11 1 993
2009-05-14 0 65 0 12 2 003
2009-05-15 0 75 0 11 2 324
2009-05-16 2 36 0 8 1 545
2009-05-17 1 52 1 13 2 284
2009-05-18 0 40 0 11 2 729
2009-05-19 1 60 0 11 2 402
2009-05-20 0 90 0 10 2 220
2009-05-21 5 54 0 10 1 843
2009-05-22 0 36 0 10 1 520
2009-05-23 0 38 0 8 1 804
2009-05-24 5 74 0 10 2 169
2009-05-25 6 80 0 13 2 515
2009-05-26 1 105 0 13 2 637
2009-05-27 4 128 0 14 3 088
2009-05-28 0 85 0 9 1 806
2009-05-29 0 82 0 11 2 137
2009-05-30 0 48 0 8 1 394
2009-05-31 3 86 0 13 1 911
Avril 2009 101 2 850 6 16 73 303
Mars 2009 80 3 538 7 17 83 610
Février 2009 57 1 586 6 16 50 521
Janvier 2009 52 1 095 12 10 40 319
2009-01-01 2 21 0 5 768
2009-01-02 5 32 2 7 1 486
2009-01-03 1 17 0 6 910
2009-01-04 0 22 0 9 1 555
2009-01-05 0 28 0 7 972
2009-01-06 1 17 1 7 734
2009-01-07 4 49 0 7 1 072
2009-01-08 1 33 0 8 1 218
2009-01-09 1 36 0 7 1 148
2009-01-10 1 19 0 9 1 249
2009-01-11 2 35 0 8 1 138
2009-01-12 1 21 2 8 1 085
2009-01-13 1 22 0 9 926
2009-01-14 1 38 1 6 1 577
2009-01-15 2 24 0 6 1 142
2009-01-16 1 22 0 9 1 101
2009-01-17 1 19 0 6 937
2009-01-18 1 19 0 8 1 091
2009-01-19 0 8 1 7 864
2009-01-20 2 22 1 10 1 014
2009-01-21 3 89 0 10 2 235
2009-01-22 0 50 0 8 1 433
2009-01-23 0 34 0 8 1 281
2009-01-24 2 18 0 7 902
2009-01-25 5 71 2 9 2 028
2009-01-26 1 85 0 10 2 278
2009-01-27 4 48 1 8 1 679
2009-01-28 3 72 0 8 1 963
2009-01-29 3 63 0 8 1 669
2009-01-30 1 38 0 9 1 324
2009-01-31 2 23 1 9 1 540
* 2008 334 4 655 56 26 234 055
Décembre 2008 36 663 7 12 28 104
Novembre 2008 51 1 090 9 10 35 948
Octobre 2008 50 609 5 10 26 582
Septembre 2008 40 619 5 10 24 365
Août 2008 28 252 6 9 21 916
Juillet 2008 20 256 5 7 16 733
Juin 2008 17 363 6 26 18 903
Mai 2008 17 180 2 10 13 320
Avril 2008 16 146 3 8 16 063
Mars 2008 18 158 1 9 12 835
Février 2008 19 155 2 9 9 679
Janvier 2008 22 164 5 7 9 607
2008-01-01 0 0 0 3 156
2008-01-02 1 6 0 3 272
2008-01-03 0 4 1 5 375
2008-01-04 0 10 0 5 389
2008-01-05 0 3 1 0 262
2008-01-06 0 3 0 7 269
2008-01-07 1 4 1 0 273
2008-01-08 1 5 0 4 363
2008-01-09 1 6 0 4 353
2008-01-10 2 18 0 4 470
2008-01-11 0 2 0 5 307
2008-01-12 0 0 0 2 173
2008-01-13 0 8 0 3 213
2008-01-14 0 5 0 6 311
2008-01-15 0 4 0 4 276
2008-01-16 0 3 0 4 283
2008-01-17 1 4 0 5 318
2008-01-18 0 7 0 5 340
2008-01-19 1 4 0 5 253
2008-01-20 0 2 1 4 270
2008-01-21 0 4 0 5 319
2008-01-22 2 2 0 0 196
2008-01-23 1 3 0 3 205
2008-01-24 0 6 0 4 222
2008-01-25 0 4 0 4 317
2008-01-26 0 2 0 4 258
2008-01-27 2 4 0 5 300
2008-01-28 4 13 1 5 640
2008-01-29 2 13 0 5 449
2008-01-30 2 9 0 0 384
2008-01-31 1 6 0 4 391
* 2007 276 2 246 55 9 102 999
Décembre 2007 21 167 5 8 17 081
Novembre 2007 20 168 3 6 8 467
Octobre 2007 21 147 4 5 8 193
Septembre 2007 22 183 4 9 9 896
2007-09-01 1 6 0 4 255
2007-09-02 1 7 1 3 302
2007-09-03 2 13 0 5 572
2007-09-04 1 15 1 9 508
2007-09-05 1 4 1 7 396
2007-09-06 1 23 0 6 618
2007-09-07 1 9 1 0 426
2007-09-08 0 5 0 4 308
2007-09-09 0 2 0 5 280
2007-09-10 1 8 0 0 334
2007-09-11 5 17 0 6 584
2007-09-12 0 3 0 7 335
2007-09-13 0 2 0 8 430
2007-09-14 0 3 0 3 253
2007-09-15 0 1 0 2 169
2007-09-16 0 0 0 3 139
2007-09-17 0 3 0 4 258
2007-09-18 0 1 0 5 289
2007-09-19 1 8 0 4 366
2007-09-20 1 4 0 3 258
2007-09-21 1 5 0 3 285
2007-09-22 0 5 0 7 259
2007-09-23 1 2 0 3 272
2007-09-24 0 8 0 4 304
2007-09-25 1 3 0 3 367
2007-09-26 1 5 0 4 246
2007-09-27 0 2 0 4 261
2007-09-28 0 4 0 4 291
2007-09-29 2 11 0 4 373
2007-09-30 0 4 0 0 158
Août 2007 23 226 2 6 9 096
Juillet 2007 18 127 1 4 10 165
Juin 2007 25 309 2 6 13 196
Mai 2007 30 315 8 7 11 830
2007-05-01 1 4 0 3 287
2007-05-02 1 6 0 4 196
2007-05-03 0 15 0 4 377
2007-05-04 0 6 0 3 271
2007-05-05 1 5 1 6 235
2007-05-06 0 6 1 3 344
2007-05-07 3 19 0 5 507
2007-05-08 1 14 0 6 449
2007-05-09 0 14 0 4 339
2007-05-10 1 9 1 4 472
2007-05-11 1 18 0 4 499
2007-05-12 3 8 0 5 354
2007-05-13 1 10 0 4 358
2007-05-14 4 25 0 7 643
2007-05-15 0 22 1 4 517
2007-05-16 0 14 0 3 354
2007-05-17 0 3 0 4 229
2007-05-18 0 4 0 5 356
2007-05-19 1 6 0 5 346
2007-05-20 2 14 0 5 515
2007-05-21 2 18 0 6 530
2007-05-22 0 13 1 5 424
2007-05-23 2 11 1 4 427
2007-05-24 0 7 0 3 276
2007-05-25 1 9 0 3 488
2007-05-26 0 3 0 4 251
2007-05-27 3 5 0 3 276
2007-05-28 0 4 2 4 451
2007-05-29 1 11 0 5 439
2007-05-30 0 5 0 4 316
2007-05-31 1 7 0 4 304
Avril 2007 44 428 13 9 13 382
Mars 2007 52 176 13 4 1 693